createdAt,value
2022-07-27T05:56:46.225Z,96163.09
2022-07-27T06:27:37.665Z,96117.22
2022-07-27T06:30:05.941Z,96131.63
2022-07-27T06:32:33.346Z,96142.38
2022-07-27T06:35:02.217Z,96119.72
2022-07-27T06:37:31.231Z,96182.25
2022-07-27T06:47:11.326Z,96155.22
2022-07-27T06:59:00.611Z,96116.09
2022-07-27T07:01:28.472Z,96132.72
2022-07-27T07:06:46.931Z,96155.47
2022-07-27T07:09:14.473Z,96147.06
2022-07-27T07:11:42.134Z,96139.59
2022-07-27T07:15:00.481Z,96172.50
2022-07-27T07:17:01.787Z,96150.00
2022-07-27T07:25:28.209Z,96173.72
2022-07-27T07:27:59.892Z,96147.97
2022-07-27T07:30:28.063Z,96180.63
2022-07-27T07:32:56.377Z,96195.28
2022-07-27T07:35:24.081Z,96184.16
2022-07-27T07:37:52.006Z,96148.19
2022-07-27T07:40:51.599Z,96164.66
2022-07-27T07:43:21.584Z,96143.75
2022-07-27T07:45:51.343Z,96130.78
2022-07-27T07:48:22.904Z,96138.81
2022-07-27T07:51:23.891Z,96145.44
2022-07-27T07:53:53.452Z,96161.84
2022-07-27T07:56:20.738Z,96174.00
2022-07-27T07:58:48.887Z,96173.63
2022-07-27T08:01:16.266Z,96133.34
2022-07-27T08:03:50.285Z,96128.06
2022-07-27T08:06:21.376Z,96163.69
2022-07-27T08:08:48.689Z,96146.72
2022-07-27T08:11:16.140Z,96151.75
2022-07-27T08:13:43.657Z,96153.78
2022-07-27T08:16:21.427Z,96140.41
2022-07-27T08:18:49.035Z,96135.91
2022-07-27T08:21:16.492Z,96151.97
2022-07-27T08:23:43.882Z,96152.94
2022-07-27T08:26:11.180Z,96163.53
2022-07-27T08:28:38.630Z,96160.09
2022-07-27T08:31:12.135Z,96167.88
2022-07-27T08:33:42.708Z,96149.44
2022-07-27T08:36:10.094Z,96164.22
2022-07-27T08:38:37.433Z,96192.06
2022-07-27T08:41:06.915Z,96171.66
2022-07-27T08:43:34.634Z,96148.09
2022-07-27T08:46:02.152Z,96159.50
2022-07-27T08:48:31.319Z,96143.47
2022-07-27T08:50:58.778Z,96146.16
2022-07-27T08:53:52.101Z,96151.19
2022-07-27T08:56:14.597Z,96171.22
2022-07-27T08:58:54.783Z,96144.94
2022-07-27T09:01:25.273Z,96155.97
2022-07-27T09:03:55.963Z,96159.63
2022-07-27T09:06:42.752Z,96191.91
2022-07-27T09:09:12.363Z,96147.19
2022-07-27T09:11:40.553Z,96139.06
2022-07-27T09:14:13.015Z,96146.50
2022-07-27T09:17:28.629Z,96143.72
2022-07-27T09:19:27.789Z,96144.97
2022-07-27T09:21:55.068Z,96154.06
2022-07-27T09:24:45.638Z,96184.53
2022-07-27T09:27:09.860Z,96145.66
2022-07-27T09:29:37.262Z,96202.13
2022-07-27T09:32:17.606Z,96158.31
2022-07-27T09:34:45.270Z,96145.91
2022-07-27T09:37:27.315Z,96152.97
2022-07-27T09:40:15.226Z,96140.72
2022-07-27T09:43:07.350Z,96135.53
2022-07-27T09:45:35.496Z,96140.41
2022-07-27T09:48:18.156Z,96143.31
2022-07-27T09:51:43.504Z,96138.31
2022-07-27T09:53:57.578Z,96147.03
2022-07-27T09:56:31.975Z,96143.00
2022-07-27T09:59:01.895Z,96148.69
2022-07-27T10:01:35.285Z,96139.31
2022-07-27T10:04:05.902Z,96138.66
2022-07-27T10:06:53.594Z,96178.63
2022-07-27T10:09:21.392Z,96171.22
2022-07-27T10:11:49.362Z,96143.34
2022-07-27T10:14:16.772Z,96170.31
2022-07-27T10:16:49.680Z,96191.91
2022-07-27T10:19:20.117Z,96202.22
2022-07-27T10:22:04.601Z,96178.19
2022-07-27T10:24:55.807Z,96152.34
2022-07-27T10:27:30.643Z,96141.06
2022-07-27T10:30:36.068Z,96182.31
2022-07-27T11:55:26.666Z,96105.50
2022-07-27T12:03:46.200Z,96123.16
2022-07-27T12:06:17.689Z,96099.72
2022-07-27T12:21:31.880Z,96082.56
2022-07-27T12:24:51.356Z,96147.94
2022-07-27T12:27:19.012Z,96093.88
2022-07-27T12:30:04.614Z,96093.25
2022-07-27T12:32:35.182Z,96104.63
2022-07-27T12:35:16.697Z,96097.97
2022-07-27T12:37:44.596Z,96099.50
2022-07-27T12:40:17.495Z,96109.16
2022-07-27T12:42:45.799Z,96091.44
2022-07-27T12:45:16.916Z,96074.25
2022-07-27T12:47:44.880Z,96098.88
2022-07-27T12:50:16.180Z,96132.50
2022-07-27T12:52:51.013Z,96083.22
2022-07-27T12:55:23.606Z,96083.75
2022-07-27T12:57:56.537Z,96079.84
2022-07-27T13:00:33.674Z,96078.81
2022-07-27T13:03:03.372Z,96091.09
2022-07-27T13:05:31.573Z,96122.72
2022-07-27T13:07:59.256Z,96107.63
2022-07-27T13:10:27.323Z,96081.16
2022-07-27T13:12:57.904Z,96126.19
2022-07-27T13:15:25.848Z,96079.88
2022-07-27T13:17:53.131Z,96084.91
2022-07-27T13:20:20.765Z,96101.69
2022-07-27T13:22:51.358Z,96123.16
2022-07-27T13:25:18.960Z,96090.50
2022-07-27T13:27:47.541Z,96103.38
2022-07-27T13:30:16.810Z,96089.19
2022-07-27T13:32:44.884Z,96142.56
2022-07-27T13:35:13.054Z,96081.75
2022-07-27T13:37:41.353Z,96099.50
2022-07-27T13:40:09.934Z,96065.22
2022-07-27T13:47:10.408Z,96085.66
2022-07-27T13:49:37.774Z,96077.88
2022-07-27T13:52:05.432Z,96071.66
2022-07-27T13:54:32.873Z,96080.25
2022-07-27T13:57:02.700Z,96067.72
2022-07-27T13:59:30.243Z,96071.56
2022-07-27T14:01:57.715Z,96070.47
2022-07-27T14:04:25.165Z,96069.84
2022-07-27T14:06:53.308Z,96053.50
2022-07-27T14:10:29.458Z,96109.00
2022-07-27T14:13:08.215Z,96064.38
2022-07-27T14:15:53.306Z,96067.78
2022-07-27T14:18:24.475Z,96061.25
2022-07-27T14:20:51.967Z,96068.44
2022-07-27T14:23:19.288Z,96091.13
2022-07-27T14:25:46.647Z,96088.31
2022-07-27T14:28:13.995Z,96095.41
2022-07-27T14:30:41.298Z,96054.13
2022-07-27T14:33:08.659Z,96054.94
2022-07-27T14:35:40.511Z,96093.75
2022-07-27T14:38:09.691Z,96065.44
2022-07-27T14:40:37.530Z,96065.28
2022-07-27T14:43:05.432Z,96057.16
2022-07-27T14:45:44.759Z,96042.19
2022-07-27T14:48:28.270Z,96048.78
2022-07-27T14:51:04.466Z,96048.69
2022-07-27T14:53:31.915Z,96033.81
2022-07-27T14:55:59.428Z,96043.59
2022-07-27T14:58:47.861Z,96102.16
2022-07-27T15:01:16.855Z,96047.84
2022-07-27T15:03:44.814Z,96048.81
2022-07-27T15:06:12.586Z,96041.38
2022-07-27T15:08:40.055Z,96042.75
2022-07-27T15:15:21.029Z,96043.81
2022-07-27T15:17:54.433Z,96044.03
2022-07-27T15:20:21.814Z,96053.75
2022-07-27T15:22:49.516Z,96042.03
2022-07-27T15:25:18.237Z,96041.69
2022-07-27T15:27:49.325Z,96044.47
2022-07-27T15:30:22.262Z,96026.66
2022-07-27T15:32:49.746Z,96038.06
2022-07-27T15:35:17.170Z,96066.53
2022-07-27T15:37:54.157Z,96029.34
2022-07-27T15:40:38.647Z,96020.38
2022-07-27T15:43:57.496Z,96071.59
2022-07-27T18:14:52.470Z,96025.78
2022-07-27T18:17:51.656Z,96023.91
2022-07-27T18:24:30.654Z,95994.97
2022-07-27T18:36:10.678Z,96045.28
2022-07-27T18:42:56.195Z,96056.75
2022-07-27T18:46:30.715Z,95998.94
2022-07-27T18:53:04.789Z,96060.28
2022-07-27T18:56:45.803Z,96011.72
2022-07-27T19:00:08.122Z,96024.91
2022-07-27T19:07:15.990Z,96077.63
2022-07-27T19:10:58.025Z,95998.22
2022-07-27T19:26:41.752Z,96046.34
2022-07-27T19:29:31.952Z,96041.56
2022-07-27T19:32:30.304Z,96096.06
2022-07-27T23:14:03.089Z,96027.41
